sensor_id;sensor_type;location;lat;lon;timestamp;temperature;humidity
55026;DHT22;40925;45.666;18.994;2022-11-20T00:00:48;204.90;2252.80
55026;DHT22;40925;45.666;18.994;2022-11-20T00:03:13;204.80;2252.80
55026;DHT22;40925;45.666;18.994;2022-11-20T00:05:39;204.90;2252.80
55026;DHT22;40925;45.666;18.994;2022-11-20T00:08:05;204.90;2252.80
55026;DHT22;40925;45.666;18.994;2022-11-20T00:10:31;205.10;2252.80
55026;DHT22;40925;45.666;18.994;2022-11-20T00:12:59;204.80;2252.80
55026;DHT22;40925;45.666;18.994;2022-11-20T00:15:25;204.80;2150.40
55026;DHT22;40925;45.666;18.994;2022-11-20T00:17:51;204.80;2252.80
55026;DHT22;40925;45.666;18.994;2022-11-20T00:20:16;180.10;2252.80
55026;DHT22;40925;45.666;18.994;2022-11-20T00:22:42;180.10;2252.80
55026;DHT22;40925;45.666;18.994;2022-11-20T00:25:08;204.80;2252.80
55026;DHT22;40925;45.666;18.994;2022-11-20T00:27:34;204.90;2252.80
55026;DHT22;40925;45.666;18.994;2022-11-20T00:29:59;180.00;2252.80
55026;DHT22;40925;45.666;18.994;2022-11-20T00:32:25;180.10;2252.80
55026;DHT22;40925;45.666;18.994;2022-11-20T00:34:51;180.10;2099.20
55026;DHT22;40925;45.666;18.994;2022-11-20T00:37:16;204.80;2252.80
55026;DHT22;40925;45.666;18.994;2022-11-20T00:39:42;204.80;2048.00
55026;DHT22;40925;45.666;18.994;2022-11-20T00:42:07;204.90;2252.80
55026;DHT22;40925;45.666;18.994;2022-11-20T00:44:33;204.80;2252.80
55026;DHT22;40925;45.666;18.994;2022-11-20T00:46:59;179.90;2252.80
55026;DHT22;40925;45.666;18.994;2022-11-20T00:49:24;180.00;2252.80
55026;DHT22;40925;45.666;18.994;2022-11-20T00:51:50;180.00;2252.80
55026;DHT22;40925;45.666;18.994;2022-11-20T00:54:15;179.90;2252.80
55026;DHT22;40925;45.666;18.994;2022-11-20T00:56:41;180.10;2252.80
55026;DHT22;40925;45.666;18.994;2022-11-20T00:59:09;204.90;2252.80
55026;DHT22;40925;45.666;18.994;2022-11-20T01:01:36;204.80;2252.80
55026;DHT22;40925;45.666;18.994;2022-11-20T01:04:02;179.80;2252.80
55026;DHT22;40925;45.666;18.994;2022-11-20T01:06:33;179.70;2252.80
55026;DHT22;40925;45.666;18.994;2022-11-20T01:09:01;179.70;1996.80
55026;DHT22;40925;45.666;18.994;2022-11-20T01:11:33;179.60;2252.80
55026;DHT22;40925;45.666;18.994;2022-11-20T01:14:00;179.60;2252.80
55026;DHT22;40925;45.666;18.994;2022-11-20T01:16:35;179.60;2252.80
55026;DHT22;40925;45.666;18.994;2022-11-20T01:19:03;179.30;2252.80
55026;DHT22;40925;45.666;18.994;2022-11-20T01:21:35;179.50;2252.80
55026;DHT22;40925;45.666;18.994;2022-11-20T01:24:03;179.40;2252.80
55026;DHT22;40925;45.666;18.994;2022-11-20T01:26:34;179.40;2252.80
55026;DHT22;40925;45.666;18.994;2022-11-20T01:29:00;179.50;2252.80
55026;DHT22;40925;45.666;18.994;2022-11-20T01:33:56;179.60;2252.80
55026;DHT22;40925;45.666;18.994;2022-11-20T01:36:23;179.70;2252.80
55026;DHT22;40925;45.666;18.994;2022-11-20T01:39:00;179.70;2252.80
55026;DHT22;40925;45.666;18.994;2022-11-20T01:41:28;179.80;2252.80
55026;DHT22;40925;45.666;18.994;2022-11-20T01:44:15;179.70;2252.80
55026;DHT22;40925;45.666;18.994;2022-11-20T01:47:02;204.80;2252.80
55026;DHT22;40925;45.666;18.994;2022-11-20T01:49:38;179.70;2252.80
55026;DHT22;40925;45.666;18.994;2022-11-20T01:52:16;179.70;2252.80
55026;DHT22;40925;45.666;18.994;2022-11-20T01:54:50;179.70;2252.80
55026;DHT22;40925;45.666;18.994;2022-11-20T01:57:19;179.60;2252.80
55026;DHT22;40925;45.666;18.994;2022-11-20T01:59:53;179.60;2252.80
55026;DHT22;40925;45.666;18.994;2022-11-20T02:02:22;179.70;2252.80
55026;DHT22;40925;45.666;18.994;2022-11-20T02:04:49;179.60;2252.80
55026;DHT22;40925;45.666;18.994;2022-11-20T02:07:17;179.60;2252.80
55026;DHT22;40925;45.666;18.994;2022-11-20T02:09:43;180.00;2252.80
55026;DHT22;40925;45.666;18.994;2022-11-20T02:12:09;179.60;2252.80
55026;DHT22;40925;45.666;18.994;2022-11-20T02:14:56;179.60;2252.80
55026;DHT22;40925;45.666;18.994;2022-11-20T02:17:23;179.60;2252.80
55026;DHT22;40925;45.666;18.994;2022-11-20T02:19:49;179.60;2252.80
55026;DHT22;40925;45.666;18.994;2022-11-20T02:22:28;179.50;2252.80
55026;DHT22;40925;45.666;18.994;2022-11-20T02:24:54;179.50;2252.80
55026;DHT22;40925;45.666;18.994;2022-11-20T02:27:21;179.60;2252.80
55026;DHT22;40925;45.666;18.994;2022-11-20T02:29:57;179.60;2252.80
55026;DHT22;40925;45.666;18.994;2022-11-20T02:32:24;179.60;2252.80
55026;DHT22;40925;45.666;18.994;2022-11-20T02:34:50;179.70;2252.80
55026;DHT22;40925;45.666;18.994;2022-11-20T02:37:17;179.50;2252.80
55026;DHT22;40925;45.666;18.994;2022-11-20T02:39:45;179.50;2252.80
55026;DHT22;40925;45.666;18.994;2022-11-20T02:42:11;179.40;2252.80
55026;DHT22;40925;45.666;18.994;2022-11-20T02:44:37;179.20;2252.80
55026;DHT22;40925;45.666;18.994;2022-11-20T02:47:03;179.30;2252.80
55026;DHT22;40925;45.666;18.994;2022-11-20T02:49:28;179.20;2252.80
55026;DHT22;40925;45.666;18.994;2022-11-20T02:51:54;179.20;2252.80
55026;DHT22;40925;45.666;18.994;2022-11-20T02:54:20;179.40;2252.80
55026;DHT22;40925;45.666;18.994;2022-11-20T02:56:45;179.30;2252.80
55026;DHT22;40925;45.666;18.994;2022-11-20T02:59:11;179.30;2252.80
55026;DHT22;40925;45.666;18.994;2022-11-20T03:01:37;179.30;2252.80
55026;DHT22;40925;45.666;18.994;2022-11-20T03:04:02;179.30;2252.80
55026;DHT22;40925;45.666;18.994;2022-11-20T03:06:28;179.50;2252.80
55026;DHT22;40925;45.666;18.994;2022-11-20T03:08:54;154.50;2252.80
55026;DHT22;40925;45.666;18.994;2022-11-20T03:11:20;154.50;2252.80
55026;DHT22;40925;45.666;18.994;2022-11-20T03:13:46;179.40;2252.80
55026;DHT22;40925;45.666;18.994;2022-11-20T03:16:14;154.40;2252.80
55026;DHT22;40925;45.666;18.994;2022-11-20T03:18:41;154.50;2252.80
55026;DHT22;40925;45.666;18.994;2022-11-20T03:21:08;154.50;2252.80
55026;DHT22;40925;45.666;18.994;2022-11-20T03:23:35;154.40;2252.80
55026;DHT22;40925;45.666;18.994;2022-11-20T03:26:28;154.50;2252.80
55026;DHT22;40925;45.666;18.994;2022-11-20T03:28:58;179.60;2252.80
55026;DHT22;40925;45.666;18.994;2022-11-20T03:31:27;179.20;2252.80
55026;DHT22;40925;45.666;18.994;2022-11-20T03:33:53;154.50;2252.80
55026;DHT22;40925;45.666;18.994;2022-11-20T03:36:20;179.20;2252.80
55026;DHT22;40925;45.666;18.994;2022-11-20T03:38:47;179.60;2252.80
55026;DHT22;40925;45.666;18.994;2022-11-20T03:41:18;179.20;2252.80
55026;DHT22;40925;45.666;18.994;2022-11-20T03:43:52;179.50;2252.80
55026;DHT22;40925;45.666;18.994;2022-11-20T03:46:19;154.50;2252.80
55026;DHT22;40925;45.666;18.994;2022-11-20T03:48:45;179.20;2252.80
55026;DHT22;40925;45.666;18.994;2022-11-20T03:51:14;179.20;2252.80
55026;DHT22;40925;45.666;18.994;2022-11-20T03:53:41;179.30;2252.80
55026;DHT22;40925;45.666;18.994;2022-11-20T03:56:07;179.30;2252.80
55026;DHT22;40925;45.666;18.994;2022-11-20T03:58:35;179.40;2252.80
55026;DHT22;40925;45.666;18.994;2022-11-20T04:01:10;179.40;2252.80
55026;DHT22;40925;45.666;18.994;2022-11-20T04:03:37;179.40;2252.80
55026;DHT22;40925;45.666;18.994;2022-11-20T04:06:05;179.50;2252.80
55026;DHT22;40925;45.666;18.994;2022-11-20T04:08:31;179.60;2252.80
55026;DHT22;40925;45.666;18.994;2022-11-20T04:11:09;179.60;2252.80
55026;DHT22;40925;45.666;18.994;2022-11-20T04:13:35;179.50;2252.80
55026;DHT22;40925;45.666;18.994;2022-11-20T04:16:01;179.40;2252.80
55026;DHT22;40925;45.666;18.994;2022-11-20T04:18:27;179.50;2252.80
55026;DHT22;40925;45.666;18.994;2022-11-20T04:20:52;179.50;2252.80
55026;DHT22;40925;45.666;18.994;2022-11-20T04:23:18;179.50;2252.80
55026;DHT22;40925;45.666;18.994;2022-11-20T04:25:44;179.40;2252.80
55026;DHT22;40925;45.666;18.994;2022-11-20T04:28:09;179.40;2252.80
55026;DHT22;40925;45.666;18.994;2022-11-20T04:30:35;179.30;2252.80
55026;DHT22;40925;45.666;18.994;2022-11-20T04:33:01;179.40;2252.80
55026;DHT22;40925;45.666;18.994;2022-11-20T04:35:26;179.40;2252.80
55026;DHT22;40925;45.666;18.994;2022-11-20T04:37:52;179.40;2252.80
55026;DHT22;40925;45.666;18.994;2022-11-20T04:40:18;179.40;2252.80
55026;DHT22;40925;45.666;18.994;2022-11-20T04:42:43;179.20;2252.80
55026;DHT22;40925;45.666;18.994;2022-11-20T04:45:09;179.20;2252.80
55026;DHT22;40925;45.666;18.994;2022-11-20T04:47:35;179.60;2252.80
55026;DHT22;40925;45.666;18.994;2022-11-20T04:50:01;179.30;2252.80
55026;DHT22;40925;45.666;18.994;2022-11-20T04:52:27;179.30;2252.80
55026;DHT22;40925;45.666;18.994;2022-11-20T04:54:52;179.40;2252.80
55026;DHT22;40925;45.666;18.994;2022-11-20T04:57:19;179.30;2252.80
55026;DHT22;40925;45.666;18.994;2022-11-20T04:59:45;179.30;2252.80
55026;DHT22;40925;45.666;18.994;2022-11-20T05:02:10;179.20;2252.80
55026;DHT22;40925;45.666;18.994;2022-11-20T05:04:36;154.50;2252.80
55026;DHT22;40925;45.666;18.994;2022-11-20T05:07:02;154.50;2252.80
55026;DHT22;40925;45.666;18.994;2022-11-20T05:09:27;154.40;2252.80
55026;DHT22;40925;45.666;18.994;2022-11-20T05:11:53;154.40;2252.80
55026;DHT22;40925;45.666;18.994;2022-11-20T05:14:19;154.40;2252.80
55026;DHT22;40925;45.666;18.994;2022-11-20T05:16:44;154.50;2252.80
55026;DHT22;40925;45.666;18.994;2022-11-20T05:19:10;154.40;2252.80
55026;DHT22;40925;45.666;18.994;2022-11-20T05:21:36;154.40;2252.80
55026;DHT22;40925;45.666;18.994;2022-11-20T05:24:01;154.20;2252.80
55026;DHT22;40925;45.666;18.994;2022-11-20T05:26:27;154.30;2252.80
55026;DHT22;40925;45.666;18.994;2022-11-20T05:28:52;154.30;2252.80
55026;DHT22;40925;45.666;18.994;2022-11-20T05:31:21;154.20;2252.80
55026;DHT22;40925;45.666;18.994;2022-11-20T05:33:46;154.20;2252.80
55026;DHT22;40925;45.666;18.994;2022-11-20T05:38:40;179.20;2252.80
55026;DHT22;40925;45.666;18.994;2022-11-20T05:41:08;179.20;2252.80
55026;DHT22;40925;45.666;18.994;2022-11-20T05:43:34;179.20;2252.80
55026;DHT22;40925;45.666;18.994;2022-11-20T05:46:00;154.50;2252.80
55026;DHT22;40925;45.666;18.994;2022-11-20T05:48:26;179.20;2252.80
55026;DHT22;40925;45.666;18.994;2022-11-20T05:50:52;154.50;2252.80
55026;DHT22;40925;45.666;18.994;2022-11-20T05:53:18;179.20;2252.80
55026;DHT22;40925;45.666;18.994;2022-11-20T05:55:44;154.40;2252.80
55026;DHT22;40925;45.666;18.994;2022-11-20T05:58:09;154.50;2252.80
55026;DHT22;40925;45.666;18.994;2022-11-20T06:00:35;154.50;2252.80
55026;DHT22;40925;45.666;18.994;2022-11-20T06:03:01;154.50;2252.80
55026;DHT22;40925;45.666;18.994;2022-11-20T06:05:27;154.50;2252.80
55026;DHT22;40925;45.666;18.994;2022-11-20T06:07:52;154.40;2252.80
55026;DHT22;40925;45.666;18.994;2022-11-20T06:10:18;179.30;2252.80
55026;DHT22;40925;45.666;18.994;2022-11-20T06:12:44;179.50;2252.80
55026;DHT22;40925;45.666;18.994;2022-11-20T06:15:10;154.30;2252.80
55026;DHT22;40925;45.666;18.994;2022-11-20T06:17:35;154.30;2252.80
55026;DHT22;40925;45.666;18.994;2022-11-20T06:20:01;154.40;2252.80
55026;DHT22;40925;45.666;18.994;2022-11-20T06:22:27;154.40;2252.80
55026;DHT22;40925;45.666;18.994;2022-11-20T06:24:52;154.40;2252.80
55026;DHT22;40925;45.666;18.994;2022-11-20T06:27:18;154.50;2252.80
55026;DHT22;40925;45.666;18.994;2022-11-20T06:29:44;154.30;2252.80
55026;DHT22;40925;45.666;18.994;2022-11-20T06:32:09;154.20;2252.80
55026;DHT22;40925;45.666;18.994;2022-11-20T06:34:35;154.30;2252.80
55026;DHT22;40925;45.666;18.994;2022-11-20T06:37:01;154.20;2252.80
55026;DHT22;40925;45.666;18.994;2022-11-20T06:39:26;154.30;2252.80
55026;DHT22;40925;45.666;18.994;2022-11-20T06:41:52;154.30;2252.80
55026;DHT22;40925;45.666;18.994;2022-11-20T06:44:17;154.30;2252.80
55026;DHT22;40925;45.666;18.994;2022-11-20T06:46:43;154.30;2252.80
55026;DHT22;40925;45.666;18.994;2022-11-20T06:49:09;154.30;2252.80
55026;DHT22;40925;45.666;18.994;2022-11-20T06:51:34;154.10;2252.80
55026;DHT22;40925;45.666;18.994;2022-11-20T06:54:00;154.00;2252.80
55026;DHT22;40925;45.666;18.994;2022-11-20T06:56:26;154.00;2227.20
55026;DHT22;40925;45.666;18.994;2022-11-20T06:58:52;154.10;2252.80
55026;DHT22;40925;45.666;18.994;2022-11-20T07:01:18;154.20;2252.80
55026;DHT22;40925;45.666;18.994;2022-11-20T07:03:43;154.20;2176.00
55026;DHT22;40925;45.666;18.994;2022-11-20T07:06:10;154.10;2252.80
55026;DHT22;40925;45.666;18.994;2022-11-20T07:08:36;154.10;2252.80
55026;DHT22;40925;45.666;18.994;2022-11-20T07:11:05;154.50;2252.80
55026;DHT22;40925;45.666;18.994;2022-11-20T07:13:31;154.20;2252.80
55026;DHT22;40925;45.666;18.994;2022-11-20T07:16:05;154.20;2252.80
55026;DHT22;40925;45.666;18.994;2022-11-20T07:18:31;154.40;2252.80
55026;DHT22;40925;45.666;18.994;2022-11-20T07:21:02;154.40;2252.80
55026;DHT22;40925;45.666;18.994;2022-11-20T07:23:28;154.30;2252.80
55026;DHT22;40925;45.666;18.994;2022-11-20T07:25:54;154.30;2252.80
55026;DHT22;40925;45.666;18.994;2022-11-20T07:28:19;154.40;2252.80
55026;DHT22;40925;45.666;18.994;2022-11-20T07:30:52;179.70;2252.80
55026;DHT22;40925;45.666;18.994;2022-11-20T07:33:18;179.20;2252.80
55026;DHT22;40925;45.666;18.994;2022-11-20T07:35:44;179.20;2150.40
55026;DHT22;40925;45.666;18.994;2022-11-20T07:38:10;179.20;2252.80
55026;DHT22;40925;45.666;18.994;2022-11-20T07:40:36;179.30;2252.80
55026;DHT22;40925;45.666;18.994;2022-11-20T07:43:01;179.30;2022.40
55026;DHT22;40925;45.666;18.994;2022-11-20T07:45:27;180.00;1894.40
55026;DHT22;40925;45.666;18.994;2022-11-20T07:47:53;179.40;2252.80
55026;DHT22;40925;45.666;18.994;2022-11-20T07:50:19;179.40;2252.80
55026;DHT22;40925;45.666;18.994;2022-11-20T07:52:45;179.40;2252.80
55026;DHT22;40925;45.666;18.994;2022-11-20T07:55:11;179.50;2022.40
55026;DHT22;40925;45.666;18.994;2022-11-20T07:57:37;179.60;2252.80
55026;DHT22;40925;45.666;18.994;2022-11-20T08:00:04;179.50;2252.80
55026;DHT22;40925;45.666;18.994;2022-11-20T08:02:30;179.60;2252.80
55026;DHT22;40925;45.666;18.994;2022-11-20T08:04:56;179.40;2252.80
55026;DHT22;40925;45.666;18.994;2022-11-20T08:07:21;179.70;2252.80
55026;DHT22;40925;45.666;18.994;2022-11-20T08:09:47;179.70;2252.80
55026;DHT22;40925;45.666;18.994;2022-11-20T08:12:20;179.90;2252.80
55026;DHT22;40925;45.666;18.994;2022-11-20T08:15:05;179.50;2252.80
55026;DHT22;40925;45.666;18.994;2022-11-20T08:17:31;179.80;2252.80
55026;DHT22;40925;45.666;18.994;2022-11-20T08:19:58;179.90;2252.80
55026;DHT22;40925;45.666;18.994;2022-11-20T08:22:23;179.80;2252.80
55026;DHT22;40925;45.666;18.994;2022-11-20T08:24:50;179.90;2252.80
55026;DHT22;40925;45.666;18.994;2022-11-20T08:27:17;179.90;2252.80
55026;DHT22;40925;45.666;18.994;2022-11-20T08:29:43;180.00;2252.80
55026;DHT22;40925;45.666;18.994;2022-11-20T08:32:08;180.10;2252.80
55026;DHT22;40925;45.666;18.994;2022-11-20T08:34:34;204.90;2252.80
55026;DHT22;40925;45.666;18.994;2022-11-20T08:37:02;205.40;2252.80
55026;DHT22;40925;45.666;18.994;2022-11-20T08:39:27;204.80;2252.80
55026;DHT22;40925;45.666;18.994;2022-11-20T08:41:53;205.30;2252.80
55026;DHT22;40925;45.666;18.994;2022-11-20T08:44:19;205.00;2252.80
55026;DHT22;40925;45.666;18.994;2022-11-20T08:46:44;205.00;2252.80
55026;DHT22;40925;45.666;18.994;2022-11-20T08:49:13;204.90;2252.80
55026;DHT22;40925;45.666;18.994;2022-11-20T08:51:39;205.00;2252.80
55026;DHT22;40925;45.666;18.994;2022-11-20T08:54:06;204.90;2252.80
55026;DHT22;40925;45.666;18.994;2022-11-20T08:56:32;205.00;2252.80
55026;DHT22;40925;45.666;18.994;2022-11-20T08:58:58;205.10;2252.80
55026;DHT22;40925;45.666;18.994;2022-11-20T09:01:27;204.90;2252.80
55026;DHT22;40925;45.666;18.994;2022-11-20T09:03:55;205.10;2252.80
55026;DHT22;40925;45.666;18.994;2022-11-20T09:06:22;205.10;2252.80
55026;DHT22;40925;45.666;18.994;2022-11-20T09:08:52;205.20;2252.80
55026;DHT22;40925;45.666;18.994;2022-11-20T09:11:18;205.30;2252.80
55026;DHT22;40925;45.666;18.994;2022-11-20T09:13:43;205.30;2252.80
55026;DHT22;40925;45.666;18.994;2022-11-20T09:16:09;205.20;2252.80
55026;DHT22;40925;45.666;18.994;2022-11-20T09:18:36;205.10;2252.80
55026;DHT22;40925;45.666;18.994;2022-11-20T09:21:09;205.20;2252.80
55026;DHT22;40925;45.666;18.994;2022-11-20T09:23:37;205.20;2252.80
55026;DHT22;40925;45.666;18.994;2022-11-20T09:26:08;205.20;2252.80
55026;DHT22;40925;45.666;18.994;2022-11-20T09:28:34;205.30;2252.80
55026;DHT22;40925;45.666;18.994;2022-11-20T09:31:00;205.30;2252.80
55026;DHT22;40925;45.666;18.994;2022-11-20T09:33:26;205.40;2252.80
55026;DHT22;40925;45.666;18.994;2022-11-20T09:35:52;205.30;2252.80
55026;DHT22;40925;45.666;18.994;2022-11-20T09:38:18;205.30;2252.80
55026;DHT22;40925;45.666;18.994;2022-11-20T09:40:56;205.50;2252.80
55026;DHT22;40925;45.666;18.994;2022-11-20T09:48:48;205.60;2252.80
55026;DHT22;40925;45.666;18.994;2022-11-20T09:51:59;205.50;2252.80
55026;DHT22;40925;45.666;18.994;2022-11-20T09:54:31;205.60;2252.80
55026;DHT22;40925;45.666;18.994;2022-11-20T09:57:18;205.60;2252.80
55026;DHT22;40925;45.666;18.994;2022-11-20T09:59:56;205.50;2252.80
55026;DHT22;40925;45.666;18.994;2022-11-20T10:05:06;205.70;2252.80
55026;DHT22;40925;45.666;18.994;2022-11-20T10:07:47;205.60;2252.80
55026;DHT22;40925;45.666;18.994;2022-11-20T10:10:21;205.60;2252.80
55026;DHT22;40925;45.666;18.994;2022-11-20T10:18:37;230.50;2252.80
55026;DHT22;40925;45.666;18.994;2022-11-20T10:27:09;231.00;2252.80
55026;DHT22;40925;45.666;18.994;2022-11-20T10:29:40;231.10;2252.80
55026;DHT22;40925;45.666;18.994;2022-11-20T10:32:16;230.90;2252.80
55026;DHT22;40925;45.666;18.994;2022-11-20T10:34:59;231.10;2252.80
55026;DHT22;40925;45.666;18.994;2022-11-20T10:37:28;256.10;2252.80
55026;DHT22;40925;45.666;18.994;2022-11-20T10:40:00;256.10;2252.80
55026;DHT22;40925;45.666;18.994;2022-11-20T10:42:37;256.30;2252.80
55026;DHT22;40925;45.666;18.994;2022-11-20T10:50:25;256.30;2252.80
55026;DHT22;40925;45.666;18.994;2022-11-20T10:58:45;281.80;2278.40
55026;DHT22;40925;45.666;18.994;2022-11-20T11:01:19;307.50;2304.00
55026;DHT22;40925;45.666;18.994;2022-11-20T11:03:47;308.00;2304.00
55026;DHT22;40925;45.666;18.994;2022-11-20T11:06:37;307.90;2304.00
55026;DHT22;40925;45.666;18.994;2022-11-20T11:09:11;307.20;2304.00
55026;DHT22;40925;45.666;18.994;2022-11-20T11:11:38;282.40;2278.40
55026;DHT22;40925;45.666;18.994;2022-11-20T11:14:09;282.50;2278.40
55026;DHT22;40925;45.666;18.994;2022-11-20T11:16:35;282.40;2278.40
55026;DHT22;40925;45.666;18.994;2022-11-20T11:19:11;307.20;2304.00
55026;DHT22;40925;45.666;18.994;2022-11-20T11:21:38;282.50;2278.40
55026;DHT22;40925;45.666;18.994;2022-11-20T11:24:28;282.00;2278.40
55026;DHT22;40925;45.666;18.994;2022-11-20T11:26:58;307.50;2304.00
55026;DHT22;40925;45.666;18.994;2022-11-20T11:29:25;332.80;2329.60
55026;DHT22;40925;45.666;18.994;2022-11-20T11:32:06;333.40;2329.60
55026;DHT22;40925;45.666;18.994;2022-11-20T11:34:32;333.70;2329.60
55026;DHT22;40925;45.666;18.994;2022-11-20T11:36:58;333.30;2329.60
55026;DHT22;40925;45.666;18.994;2022-11-20T11:39:26;333.10;2329.60
55026;DHT22;40925;45.666;18.994;2022-11-20T11:41:52;308.10;2304.00
55026;DHT22;40925;45.666;18.994;2022-11-20T11:44:28;307.90;2304.00
55026;DHT22;40925;45.666;18.994;2022-11-20T11:47:23;307.70;2304.00
55026;DHT22;40925;45.666;18.994;2022-11-20T11:50:00;307.50;2304.00
55026;DHT22;40925;45.666;18.994;2022-11-20T11:52:26;307.20;2304.00
55026;DHT22;40925;45.666;18.994;2022-11-20T11:55:01;282.30;2278.40
55026;DHT22;40925;45.666;18.994;2022-11-20T12:00:16;282.20;2278.40
55026;DHT22;40925;45.666;18.994;2022-11-20T12:05:24;282.10;2278.40
55026;DHT22;40925;45.666;18.994;2022-11-20T12:10:56;282.30;2278.40
55026;DHT22;40925;45.666;18.994;2022-11-20T12:13:26;282.40;2278.40
55026;DHT22;40925;45.666;18.994;2022-11-20T12:15:53;282.30;2278.40
55026;DHT22;40925;45.666;18.994;2022-11-20T12:18:21;282.10;2278.40
55026;DHT22;40925;45.666;18.994;2022-11-20T12:34:28;256.80;2252.80
55026;DHT22;40925;45.666;18.994;2022-11-20T12:39:56;256.90;2252.80
55026;DHT22;40925;45.666;18.994;2022-11-20T12:42:43;281.80;2278.40
55026;DHT22;40925;45.666;18.994;2022-11-20T12:48:42;281.90;2278.40
55026;DHT22;40925;45.666;18.994;2022-11-20T13:07:19;282.00;2278.40
55026;DHT22;40925;45.666;18.994;2022-11-20T13:09:48;282.00;2278.40
55026;DHT22;40925;45.666;18.994;2022-11-20T13:12:40;281.90;2278.40
55026;DHT22;40925;45.666;18.994;2022-11-20T13:18:04;281.60;2278.40
55026;DHT22;40925;45.666;18.994;2022-11-20T13:20:31;256.90;2252.80
55026;DHT22;40925;45.666;18.994;2022-11-20T13:22:58;256.90;2252.80
55026;DHT22;40925;45.666;18.994;2022-11-20T13:25:35;256.70;2252.80
55026;DHT22;40925;45.666;18.994;2022-11-20T13:30:52;256.50;2252.80
55026;DHT22;40925;45.666;18.994;2022-11-20T13:33:38;256.40;2252.80
55026;DHT22;40925;45.666;18.994;2022-11-20T13:36:19;256.40;2252.80
55026;DHT22;40925;45.666;18.994;2022-11-20T13:38:51;256.40;2252.80
55026;DHT22;40925;45.666;18.994;2022-11-20T13:41:34;256.40;2252.80
55026;DHT22;40925;45.666;18.994;2022-11-20T13:44:15;256.30;2252.80
55026;DHT22;40925;45.666;18.994;2022-11-20T13:46:48;256.40;2252.80
55026;DHT22;40925;45.666;18.994;2022-11-20T13:51:50;256.60;2252.80
55026;DHT22;40925;45.666;18.994;2022-11-20T13:57:20;256.70;2252.80
55026;DHT22;40925;45.666;18.994;2022-11-20T14:02:25;256.90;2252.80
55026;DHT22;40925;45.666;18.994;2022-11-20T14:04:53;256.60;2252.80
55026;DHT22;40925;45.666;18.994;2022-11-20T14:07:23;256.30;2252.80
55026;DHT22;40925;45.666;18.994;2022-11-20T14:09:52;256.40;2252.80
55026;DHT22;40925;45.666;18.994;2022-11-20T14:12:20;256.50;2252.80
55026;DHT22;40925;45.666;18.994;2022-11-20T14:14:49;256.50;2252.80
55026;DHT22;40925;45.666;18.994;2022-11-20T14:17:24;256.50;2252.80
55026;DHT22;40925;45.666;18.994;2022-11-20T14:19:59;256.50;2252.80
55026;DHT22;40925;45.666;18.994;2022-11-20T14:22:26;256.50;2252.80
55026;DHT22;40925;45.666;18.994;2022-11-20T14:25:20;256.40;2252.80
55026;DHT22;40925;45.666;18.994;2022-11-20T14:27:57;256.40;2252.80
55026;DHT22;40925;45.666;18.994;2022-11-20T14:30:25;256.30;2252.80
55026;DHT22;40925;45.666;18.994;2022-11-20T14:32:54;256.30;2252.80
55026;DHT22;40925;45.666;18.994;2022-11-20T14:35:25;256.20;2252.80
55026;DHT22;40925;45.666;18.994;2022-11-20T14:37:52;256.20;2252.80
55026;DHT22;40925;45.666;18.994;2022-11-20T14:40:35;256.20;2252.80
55026;DHT22;40925;45.666;18.994;2022-11-20T14:43:27;256.10;2252.80
55026;DHT22;40925;45.666;18.994;2022-11-20T14:46:08;256.10;2252.80
55026;DHT22;40925;45.666;18.994;2022-11-20T14:48:41;256.00;2252.80
55026;DHT22;40925;45.666;18.994;2022-11-20T14:51:10;231.30;2252.80
55026;DHT22;40925;45.666;18.994;2022-11-20T14:53:36;231.20;2252.80
55026;DHT22;40925;45.666;18.994;2022-11-20T14:56:02;231.20;2252.80
55026;DHT22;40925;45.666;18.994;2022-11-20T14:58:30;231.20;2252.80
55026;DHT22;40925;45.666;18.994;2022-11-20T15:01:05;256.60;2252.80
55026;DHT22;40925;45.666;18.994;2022-11-20T15:03:41;231.20;2252.80
55026;DHT22;40925;45.666;18.994;2022-11-20T15:06:09;231.20;2252.80
55026;DHT22;40925;45.666;18.994;2022-11-20T15:08:36;231.20;2252.80
55026;DHT22;40925;45.666;18.994;2022-11-20T15:11:02;231.10;2252.80
55026;DHT22;40925;45.666;18.994;2022-11-20T15:13:33;231.00;2252.80
55026;DHT22;40925;45.666;18.994;2022-11-20T15:16:01;231.00;2252.80
55026;DHT22;40925;45.666;18.994;2022-11-20T15:18:33;231.10;2252.80
55026;DHT22;40925;45.666;18.994;2022-11-20T15:21:03;231.00;2252.80
55026;DHT22;40925;45.666;18.994;2022-11-20T15:23:31;231.00;2252.80
55026;DHT22;40925;45.666;18.994;2022-11-20T15:25:57;231.00;2252.80
55026;DHT22;40925;45.666;18.994;2022-11-20T15:30:53;231.10;2252.80
55026;DHT22;40925;45.666;18.994;2022-11-20T15:33:19;230.90;2252.80
55026;DHT22;40925;45.666;18.994;2022-11-20T15:35:44;230.90;2252.80
55026;DHT22;40925;45.666;18.994;2022-11-20T15:38:10;230.90;2252.80
55026;DHT22;40925;45.666;18.994;2022-11-20T15:40:36;230.80;2252.80
55026;DHT22;40925;45.666;18.994;2022-11-20T15:43:02;230.70;2252.80
55026;DHT22;40925;45.666;18.994;2022-11-20T15:45:31;230.60;2252.80
55026;DHT22;40925;45.666;18.994;2022-11-20T15:47:59;230.70;2252.80
55026;DHT22;40925;45.666;18.994;2022-11-20T15:50:29;230.50;2252.80
55026;DHT22;40925;45.666;18.994;2022-11-20T15:52:58;230.50;2252.80
55026;DHT22;40925;45.666;18.994;2022-11-20T15:55:24;230.40;2252.80
55026;DHT22;40925;45.666;18.994;2022-11-20T15:57:49;230.40;2252.80
55026;DHT22;40925;45.666;18.994;2022-11-20T16:00:15;205.70;2252.80
55026;DHT22;40925;45.666;18.994;2022-11-20T16:02:41;205.70;2252.80
55026;DHT22;40925;45.666;18.994;2022-11-20T16:05:11;205.70;2252.80
55026;DHT22;40925;45.666;18.994;2022-11-20T16:07:37;205.60;2252.80
55026;DHT22;40925;45.666;18.994;2022-11-20T16:10:03;205.60;2252.80
55026;DHT22;40925;45.666;18.994;2022-11-20T16:12:29;205.60;2252.80
55026;DHT22;40925;45.666;18.994;2022-11-20T16:15:13;205.50;2252.80
55026;DHT22;40925;45.666;18.994;2022-11-20T16:17:58;205.50;2252.80
55026;DHT22;40925;45.666;18.994;2022-11-20T16:20:23;205.40;2252.80
55026;DHT22;40925;45.666;18.994;2022-11-20T16:22:49;205.40;2252.80